Terminal Aerodrome Forecast
Issued by NWS

Home | Current Version | Previous Version | Graphics & Text | Print | Product List | Glossary On
Versions: 1 2 3 4 5 6 7 8 9 10 11 12 13
000
FTUS43 KICT 182337
TAFRSL
TAF
KRSL 182337Z 1900/1924 22012KT P6SM SCT100 BKN200
     FM190400 25011KT P6SM BKN100 OVC250
     FM190800 30011KT P6SM BKN250
     FM191500 33010KT P6SM SCT250=

USA.gov is the U.S. government's official web portal to all federal, state and local government web resources and services.